Clarkton, Missouri
Current Conditions -  °F | °C
As of 9:53 AM on Wednesday 26 Nov 2014 (Local Time) from KPOF Reporting Station
Overcast Overcast  
Wind Chill: 30°   Ceiling: 8500
Heat Index: 36°   Visibility: 10mi
Dew Point: 29°   Wind: 8mph
Humidity: 76%   Direction: 90°E
Pressure: 30.06"   Gusts: NA
Location:  36.45°N, 89.97°W
Report Text: KPOF 261553Z AUTO 09007KT 10SM OVC085 02/M02 A3006 RMK AO2 SLP184 T00221017
Loading
Personal Weather Stations






























Interactive Weather Map New forecast layout! Learn more

10-Day Weather Forecast

Advertisements
Track Severe Weather on mobile